createdAt,value
2016-07-26T00:00:03.767Z,1016.13
2016-07-26T00:00:13.755Z,1016.04
2016-07-26T00:00:23.750Z,1016.09
2016-07-26T00:00:33.748Z,1016.12
2016-07-26T00:00:43.740Z,1016.1
2016-07-26T00:00:53.737Z,1016.09
2016-07-26T00:01:03.733Z,1016.13
2016-07-26T00:01:13.728Z,1016.1
2016-07-26T00:01:23.724Z,1016.06
2016-07-26T00:01:33.721Z,1016.11
2016-07-26T00:01:43.717Z,1016.08
2016-07-26T00:01:53.718Z,1016.1
2016-07-26T00:02:03.707Z,1016.1
2016-07-26T00:02:13.704Z,1016.06
2016-07-26T00:02:23.700Z,1016.12
2016-07-26T00:02:33.695Z,1016.09
2016-07-26T00:02:43.691Z,1016.03
2016-07-26T00:02:53.685Z,1016.04
2016-07-26T00:03:03.682Z,1016.05
2016-07-26T00:03:13.677Z,1016.02
2016-07-26T00:03:23.680Z,1016.05
2016-07-26T00:03:33.671Z,1016.04
2016-07-26T00:03:43.666Z,1016.04
2016-07-26T00:03:53.659Z,1016.05
2016-07-26T00:04:03.658Z,1016.07
2016-07-26T00:04:13.654Z,1016.02
2016-07-26T00:04:23.648Z,1016.02
2016-07-26T00:04:33.645Z,1016.05
2016-07-26T00:04:43.640Z,1016.1
2016-07-26T00:04:53.637Z,1016.04
2016-07-26T00:05:03.628Z,1016.05
2016-07-26T00:05:13.626Z,1016.08
2016-07-26T00:05:23.625Z,1016.07
2016-07-26T00:05:33.617Z,1016.03
2016-07-26T00:05:43.614Z,1016.06
2016-07-26T00:05:53.612Z,1016.05
2016-07-26T00:06:03.603Z,1016.03
2016-07-26T00:06:13.609Z,1016.06
2016-07-26T00:06:23.596Z,1016.09
2016-07-26T00:06:33.591Z,1016.12
2016-07-26T00:06:43.588Z,1016.04
2016-07-26T00:06:53.583Z,1016.08
2016-07-26T00:07:03.580Z,1016.08
2016-07-26T00:07:13.574Z,1016.07
2016-07-26T00:07:23.568Z,1016.13
2016-07-26T00:07:33.566Z,1016.11
2016-07-26T00:07:43.559Z,1016.05
2016-07-26T00:07:53.556Z,1016.04
2016-07-26T00:08:03.553Z,1016.05
2016-07-26T00:08:13.547Z,1016.05
2016-07-26T00:08:23.542Z,1016.03
2016-07-26T00:08:33.540Z,1016.04
2016-07-26T00:08:43.535Z,1016.09
2016-07-26T00:08:53.528Z,1016.06
2016-07-26T00:09:03.525Z,1016.09
2016-07-26T00:09:13.521Z,1016.11
2016-07-26T00:09:23.517Z,1016.08
2016-07-26T00:09:33.513Z,1016.11
2016-07-26T00:09:43.510Z,1016.11
2016-07-26T00:09:53.505Z,1016.08
2016-07-26T00:10:03.499Z,1016.07
2016-07-26T00:10:13.496Z,1016.08
2016-07-26T00:10:23.492Z,1016.1
2016-07-26T00:10:33.491Z,1016.07
2016-07-26T00:10:43.482Z,1016.07
2016-07-26T00:10:53.476Z,1016.06
2016-07-26T00:11:03.472Z,1016.05
2016-07-26T00:11:13.471Z,1016.09
2016-07-26T00:11:23.467Z,1016.08
2016-07-26T00:11:33.461Z,1016.1
2016-07-26T00:11:43.456Z,1016.06
2016-07-26T00:11:53.452Z,1016.07
2016-07-26T00:12:03.448Z,1016.1
2016-07-26T00:12:13.444Z,1016.06
2016-07-26T00:12:23.440Z,1016.12
2016-07-26T00:12:33.438Z,1016.07
2016-07-26T00:12:43.431Z,1016.08
2016-07-26T00:12:53.427Z,1016.09
2016-07-26T00:13:03.422Z,1016.09
2016-07-26T00:13:13.426Z,1016.07
2016-07-26T00:13:23.413Z,1016.1
2016-07-26T00:13:33.409Z,1016.11
2016-07-26T00:13:43.403Z,1016.14
2016-07-26T00:13:53.400Z,1016.1
2016-07-26T00:14:03.397Z,1016.09
2016-07-26T00:14:13.391Z,1016.13
2016-07-26T00:14:23.384Z,1016.12
2016-07-26T00:14:33.384Z,1016.11
2016-07-26T00:14:43.380Z,1016.1
2016-07-26T00:14:53.373Z,1016.13
2016-07-26T00:15:04.101Z,1016.09
2016-07-26T00:15:13.364Z,1016.08
2016-07-26T00:15:23.359Z,1016.14
2016-07-26T00:15:33.357Z,1016.1
2016-07-26T00:15:43.354Z,1016.13
2016-07-26T00:15:53.347Z,1016.1
2016-07-26T00:16:03.343Z,1016.1
2016-07-26T00:16:13.339Z,1016.12
2016-07-26T00:16:23.333Z,1016.14
2016-07-26T00:16:33.331Z,1016.08
2016-07-26T00:16:43.327Z,1016.13
2016-07-26T00:16:53.323Z,1016.15
2016-07-26T00:17:03.324Z,1016.14
2016-07-26T00:17:13.313Z,1016.11
2016-07-26T00:17:23.309Z,1016.11
2016-07-26T00:17:33.305Z,1016.13
2016-07-26T00:17:43.301Z,1016.17
2016-07-26T00:17:53.297Z,1016.14
2016-07-26T00:18:03.292Z,1016.17
2016-07-26T00:18:13.286Z,1016.18
2016-07-26T00:18:23.283Z,1016.14
2016-07-26T00:18:33.281Z,1016.14
2016-07-26T00:18:43.274Z,1016.11
2016-07-26T00:18:53.271Z,1016.19
2016-07-26T00:19:03.267Z,1016.18
2016-07-26T00:19:13.263Z,1016.16
2016-07-26T00:19:23.259Z,1016.16
2016-07-26T00:19:33.255Z,1016.18
2016-07-26T00:19:43.247Z,1016.18
2016-07-26T00:19:53.246Z,1016.18
2016-07-26T00:20:03.243Z,1016.15
2016-07-26T00:20:13.235Z,1016.15
2016-07-26T00:20:23.229Z,1016.19
2016-07-26T00:20:33.228Z,1016.14
2016-07-26T00:20:43.222Z,1016.18
2016-07-26T00:20:53.219Z,1016.19
2016-07-26T00:21:03.213Z,1016.21
2016-07-26T00:21:13.210Z,1016.21
2016-07-26T00:21:23.934Z,1016.19
2016-07-26T00:21:33.200Z,1016.18
2016-07-26T00:21:43.198Z,1016.16
2016-07-26T00:21:53.203Z,1016.15
2016-07-26T00:22:03.189Z,1016.17
2016-07-26T00:22:13.182Z,1016.15
2016-07-26T00:22:23.178Z,1016.09
2016-07-26T00:22:33.174Z,1016.17
2016-07-26T00:22:43.172Z,1016.16
2016-07-26T00:22:53.165Z,1016.16
2016-07-26T00:23:03.162Z,1016.18
2016-07-26T00:23:13.158Z,1016.16
2016-07-26T00:23:23.153Z,1016.13
2016-07-26T00:23:33.149Z,1016.15
2016-07-26T00:23:43.143Z,1016.17
2016-07-26T00:23:53.140Z,1016.13
2016-07-26T00:24:03.136Z,1016.13
2016-07-26T00:24:13.129Z,1016.13
2016-07-26T00:24:23.127Z,1016.16
2016-07-26T00:24:33.122Z,1016.13
2016-07-26T00:24:43.119Z,1016.13
2016-07-26T00:24:53.113Z,1016.11
2016-07-26T00:25:03.111Z,1016.08
2016-07-26T00:25:13.106Z,1016.15
2016-07-26T00:25:23.101Z,1016.13
2016-07-26T00:25:33.095Z,1016.1
2016-07-26T00:25:43.093Z,1016.1
2016-07-26T00:25:53.088Z,1016.12
2016-07-26T00:26:03.083Z,1016.06
2016-07-26T00:26:13.079Z,1016.06
2016-07-26T00:26:23.075Z,1016.09
2016-07-26T00:26:33.073Z,1016.07
2016-07-26T00:26:43.068Z,1016.08
2016-07-26T00:26:53.063Z,1016.1
2016-07-26T00:27:03.062Z,1016.12
2016-07-26T00:27:13.056Z,1016.13
2016-07-26T00:27:23.048Z,1016.11
2016-07-26T00:27:33.044Z,1016.09
2016-07-26T00:27:43.041Z,1016.15
2016-07-26T00:27:53.036Z,1016.11
2016-07-26T00:28:03.032Z,1016.1
2016-07-26T00:28:13.027Z,1016.11
2016-07-26T00:28:23.022Z,1016.11
2016-07-26T00:28:33.020Z,1016.11
2016-07-26T00:28:43.016Z,1016.12
2016-07-26T00:28:53.022Z,1016.14
2016-07-26T00:29:03.006Z,1016.14
2016-07-26T00:29:13.001Z,1016.15
2016-07-26T00:29:22.997Z,1016.14
2016-07-26T00:29:32.992Z,1016.11
2016-07-26T00:29:42.986Z,1016.09
2016-07-26T00:29:52.986Z,1016.12
2016-07-26T00:30:02.981Z,1016.11
2016-07-26T00:30:12.975Z,1016.11
2016-07-26T00:30:22.969Z,1016.13
2016-07-26T00:30:32.967Z,1016.11
2016-07-26T00:30:42.961Z,1016.1
2016-07-26T00:30:52.958Z,1016.13
2016-07-26T00:31:02.954Z,1016.12
2016-07-26T00:31:12.950Z,1016.11
2016-07-26T00:31:22.944Z,1016.1
2016-07-26T00:31:32.940Z,1016.12
2016-07-26T00:31:42.935Z,1016.14
2016-07-26T00:31:52.933Z,1016.11
2016-07-26T00:32:02.926Z,1016.15
2016-07-26T00:32:12.922Z,1016.13
2016-07-26T00:32:22.918Z,1016.15
2016-07-26T00:32:32.914Z,1016.11
2016-07-26T00:32:42.909Z,1016.16
2016-07-26T00:32:52.907Z,1016.12
2016-07-26T00:33:02.901Z,1016.1
2016-07-26T00:33:12.900Z,1016.12
2016-07-26T00:33:22.894Z,1016.08
2016-07-26T00:33:32.888Z,1016.07
2016-07-26T00:33:42.883Z,1016.07
2016-07-26T00:33:52.880Z,1016.09
2016-07-26T00:34:02.877Z,1016.1
2016-07-26T00:34:12.870Z,1016.06
2016-07-26T00:34:22.866Z,1016.06
2016-07-26T00:34:32.863Z,1016.08
2016-07-26T00:34:42.859Z,1016.09
2016-07-26T00:34:52.855Z,1016.11
2016-07-26T00:35:02.851Z,1016.06
2016-07-26T00:35:12.846Z,1016.06
2016-07-26T00:35:22.839Z,1016.05
2016-07-26T00:35:32.837Z,1016.08
2016-07-26T00:35:42.830Z,1016.09
2016-07-26T00:35:52.827Z,1016.08
2016-07-26T00:36:02.825Z,1016.08
2016-07-26T00:36:12.819Z,1016.06
2016-07-26T00:36:22.817Z,1016.1
2016-07-26T00:36:32.812Z,1016.06
2016-07-26T00:36:42.805Z,1016.07
2016-07-26T00:36:52.800Z,1016.06
2016-07-26T00:37:02.800Z,1016.09
2016-07-26T00:37:12.791Z,1016.07
2016-07-26T00:37:22.790Z,1016.09
2016-07-26T00:37:32.783Z,1016.07
2016-07-26T00:37:42.781Z,1016.07
2016-07-26T00:37:52.775Z,1016.09
2016-07-26T00:38:02.772Z,1016.08
2016-07-26T00:38:12.768Z,1016.07
2016-07-26T00:38:22.761Z,1016.1
2016-07-26T00:38:32.758Z,1016.05
2016-07-26T00:38:42.757Z,1016.07
2016-07-26T00:38:52.748Z,1016.08
2016-07-26T00:39:03.478Z,1016.08
2016-07-26T00:39:12.742Z,1016.11
2016-07-26T00:39:22.735Z,1016.11
2016-07-26T00:39:32.730Z,1016.09
2016-07-26T00:39:42.727Z,1016.07
2016-07-26T00:39:52.723Z,1016.11
2016-07-26T00:40:02.718Z,1016.07
2016-07-26T00:40:12.714Z,1016.1
2016-07-26T00:40:22.708Z,1016.07
2016-07-26T00:40:32.705Z,1016.08
2016-07-26T00:40:42.700Z,1016.1
2016-07-26T00:40:52.696Z,1016.11
2016-07-26T00:41:02.692Z,1016.14
2016-07-26T00:41:12.689Z,1016.13
2016-07-26T00:41:22.685Z,1016.13
2016-07-26T00:41:32.678Z,1016.13
2016-07-26T00:41:42.676Z,1016.09
2016-07-26T00:41:52.679Z,1016.17
2016-07-26T00:42:02.668Z,1016.11
2016-07-26T00:42:12.663Z,1016.15
2016-07-26T00:42:22.659Z,1016.17
2016-07-26T00:42:32.655Z,1016.16
2016-07-26T00:42:42.651Z,1016.1
2016-07-26T00:42:52.647Z,1016.11
2016-07-26T00:43:02.640Z,1016.1
2016-07-26T00:43:12.637Z,1016.16
2016-07-26T00:43:22.630Z,1016.17
2016-07-26T00:43:32.628Z,1016.17
2016-07-26T00:43:42.623Z,1016.14
2016-07-26T00:43:52.619Z,1016.17
2016-07-26T00:44:02.615Z,1016.13
2016-07-26T00:44:12.610Z,1016.19
2016-07-26T00:44:22.605Z,1016.13
2016-07-26T00:44:32.602Z,1016.18
2016-07-26T00:44:42.596Z,1016.13
2016-07-26T00:44:52.593Z,1016.09
2016-07-26T00:45:02.590Z,1016.09
2016-07-26T00:45:12.583Z,1016.13
2016-07-26T00:45:22.579Z,1016.17
2016-07-26T00:45:32.575Z,1016.12
2016-07-26T00:45:42.570Z,1016.14
2016-07-26T00:45:52.565Z,1016.12
2016-07-26T00:46:02.559Z,1016.15
2016-07-26T00:46:12.556Z,1016.12
2016-07-26T00:46:22.556Z,1016.12
2016-07-26T00:46:32.551Z,1016.15
2016-07-26T00:46:42.545Z,1016.11
2016-07-26T00:46:52.539Z,1016.15
2016-07-26T00:47:02.536Z,1016.13
2016-07-26T00:47:12.532Z,1016.11
2016-07-26T00:47:22.526Z,1016.1
2016-07-26T00:47:32.523Z,1016.12
2016-07-26T00:47:42.518Z,1016.17
2016-07-26T00:47:52.513Z,1016.17
2016-07-26T00:48:02.511Z,1016.14
2016-07-26T00:48:12.506Z,1016.16
2016-07-26T00:48:22.499Z,1016.15
2016-07-26T00:48:32.498Z,1016.14
2016-07-26T00:48:42.492Z,1016.15
2016-07-26T00:48:52.488Z,1016.16
2016-07-26T00:49:02.486Z,1016.15
2016-07-26T00:49:12.480Z,1016.14
2016-07-26T00:49:22.474Z,1016.15
2016-07-26T00:49:32.469Z,1016.19
2016-07-26T00:49:42.465Z,1016.14
2016-07-26T00:49:52.463Z,1016.21
2016-07-26T00:50:02.461Z,1016.17
2016-07-26T00:50:12.456Z,1016.19
2016-07-26T00:50:22.447Z,1016.16
2016-07-26T00:50:32.444Z,1016.19
2016-07-26T00:50:42.443Z,1016.16
2016-07-26T00:50:52.436Z,1016.16
2016-07-26T00:51:02.432Z,1016.18
2016-07-26T00:51:12.428Z,1016.2
2016-07-26T00:51:22.425Z,1016.19
2016-07-26T00:51:32.419Z,1016.21
2016-07-26T00:51:42.413Z,1016.16
2016-07-26T00:51:52.408Z,1016.17
2016-07-26T00:52:02.407Z,1016.16
2016-07-26T00:52:12.400Z,1016.18
2016-07-26T00:52:22.398Z,1016.2
2016-07-26T00:52:32.393Z,1016.17
2016-07-26T00:52:42.396Z,1016.18
2016-07-26T00:52:52.383Z,1016.14
2016-07-26T00:53:02.380Z,1016.17
2016-07-26T00:53:12.376Z,1016.18
2016-07-26T00:53:22.374Z,1016.16
2016-07-26T00:53:32.367Z,1016.16
2016-07-26T00:53:42.362Z,1016.14
2016-07-26T00:53:52.358Z,1016.16
2016-07-26T00:54:02.353Z,1016.16
2016-07-26T00:54:12.348Z,1016.13
2016-07-26T00:54:22.344Z,1016.17
2016-07-26T00:54:32.339Z,1016.16
2016-07-26T00:54:42.336Z,1016.15
2016-07-26T00:54:52.330Z,1016.14
2016-07-26T00:55:02.331Z,1016.16
2016-07-26T00:55:12.324Z,1016.19
2016-07-26T00:55:22.327Z,1016.16
2016-07-26T00:55:32.312Z,1016.16
2016-07-26T00:55:42.309Z,1016.15
2016-07-26T00:55:52.306Z,1016.19
2016-07-26T00:56:02.300Z,1016.18
2016-07-26T00:56:12.297Z,1016.15
2016-07-26T00:56:22.297Z,1016.18
2016-07-26T00:56:32.290Z,1016.2
2016-07-26T00:56:42.284Z,1016.17
2016-07-26T00:56:52.280Z,1016.18
2016-07-26T00:57:02.275Z,1016.12
2016-07-26T00:57:12.272Z,1016.2
2016-07-26T00:57:22.267Z,1016.16
2016-07-26T00:57:32.261Z,1016.17
2016-07-26T00:57:42.258Z,1016.18
2016-07-26T00:57:52.255Z,1016.18
2016-07-26T00:58:02.249Z,1016.19
2016-07-26T00:58:12.246Z,1016.2
2016-07-26T00:58:22.240Z,1016.16
2016-07-26T00:58:32.237Z,1016.17
2016-07-26T00:58:42.234Z,1016.14
2016-07-26T00:58:52.226Z,1016.2
2016-07-26T00:59:02.221Z,1016.15
2016-07-26T00:59:12.219Z,1016.18
2016-07-26T00:59:22.214Z,1016.15
2016-07-26T00:59:32.208Z,1016.21
2016-07-26T00:59:42.205Z,1016.15
2016-07-26T00:59:52.201Z,1016.18
2016-07-26T01:00:02.197Z,1016.17
2016-07-26T01:00:12.191Z,1016.19
2016-07-26T01:00:22.187Z,1016.18
2016-07-26T01:00:32.182Z,1016.19
2016-07-26T01:00:42.178Z,1016.17
2016-07-26T01:00:52.175Z,1016.14
2016-07-26T01:01:02.168Z,1016.2
2016-07-26T01:01:12.166Z,1016.19
2016-07-26T01:01:22.161Z,1016.19
2016-07-26T01:01:32.157Z,1016.16
2016-07-26T01:01:42.151Z,1016.2
2016-07-26T01:01:52.154Z,1016.18
2016-07-26T01:02:02.143Z,1016.18
2016-07-26T01:02:12.139Z,1016.14
2016-07-26T01:02:22.135Z,1016.19
2016-07-26T01:02:32.132Z,1016.17
2016-07-26T01:02:42.131Z,1016.23
2016-07-26T01:02:52.123Z,1016.18
2016-07-26T01:03:02.119Z,1016.21
2016-07-26T01:03:12.113Z,1016.17
2016-07-26T01:03:22.110Z,1016.2
2016-07-26T01:03:32.105Z,1016.17
2016-07-26T01:03:42.100Z,1016.18
2016-07-26T01:03:52.098Z,1016.13
2016-07-26T01:04:02.093Z,1016.17
2016-07-26T01:04:12.087Z,1016.18
2016-07-26T01:04:22.084Z,1016.16
2016-07-26T01:04:32.079Z,1016.15
2016-07-26T01:04:42.074Z,1016.14
2016-07-26T01:04:52.070Z,1016.13
2016-07-26T01:05:02.065Z,1016.18
2016-07-26T01:05:12.063Z,1016.16
2016-07-26T01:05:22.060Z,1016.15
2016-07-26T01:05:32.052Z,1016.15
2016-07-26T01:05:42.049Z,1016.13
2016-07-26T01:05:52.046Z,1016.13
2016-07-26T01:06:02.039Z,1016.16
2016-07-26T01:06:12.764Z,1016.18
2016-07-26T01:06:22.034Z,1016.17
2016-07-26T01:06:32.026Z,1016.18
2016-07-26T01:06:42.751Z,1016.18
2016-07-26T01:06:52.018Z,1016.16
2016-07-26T01:07:02.012Z,1016.17
2016-07-26T01:07:12.008Z,1016.17
2016-07-26T01:07:22.004Z,1016.22
2016-07-26T01:07:31.999Z,1016.2
2016-07-26T01:07:41.994Z,1016.21
2016-07-26T01:07:51.992Z,1016.15
2016-07-26T01:08:01.988Z,1016.22
2016-07-26T01:08:12.724Z,1016.19
2016-07-26T01:08:21.977Z,1016.18
2016-07-26T01:08:31.975Z,1016.18
2016-07-26T01:08:41.970Z,1016.21
2016-07-26T01:08:51.963Z,1016.18
2016-07-26T01:09:01.961Z,1016.21
2016-07-26T01:09:11.955Z,1016.2
2016-07-26T01:09:21.951Z,1016.21
2016-07-26T01:09:31.946Z,1016.2
2016-07-26T01:09:41.943Z,1016.22
2016-07-26T01:09:51.939Z,1016.19
2016-07-26T01:10:01.934Z,1016.2
2016-07-26T01:10:11.931Z,1016.16
2016-07-26T01:10:21.927Z,1016.17
2016-07-26T01:10:31.922Z,1016.2
2016-07-26T01:10:41.917Z,1016.16
2016-07-26T01:10:51.919Z,1016.19
2016-07-26T01:11:01.909Z,1016.19
2016-07-26T01:11:11.905Z,1016.18
2016-07-26T01:11:21.899Z,1016.21
2016-07-26T01:11:31.896Z,1016.18
2016-07-26T01:11:41.891Z,1016.19
2016-07-26T01:11:51.887Z,1016.18
2016-07-26T01:12:01.885Z,1016.14
2016-07-26T01:12:11.878Z,1016.19
2016-07-26T01:12:21.876Z,1016.22
2016-07-26T01:12:31.871Z,1016.2
2016-07-26T01:12:41.865Z,1016.19
2016-07-26T01:12:51.863Z,1016.21
2016-07-26T01:13:01.857Z,1016.23
2016-07-26T01:13:11.853Z,1016.24
2016-07-26T01:13:21.856Z,1016.23
2016-07-26T01:13:31.843Z,1016.22
2016-07-26T01:13:41.846Z,1016.19
2016-07-26T01:13:51.834Z,1016.2
2016-07-26T01:14:01.830Z,1016.21
2016-07-26T01:14:11.823Z,1016.22
2016-07-26T01:14:21.821Z,1016.25
2016-07-26T01:14:31.818Z,1016.17
2016-07-26T01:14:41.817Z,1016.21
2016-07-26T01:14:51.808Z,1016.19
2016-07-26T01:15:01.802Z,1016.22
2016-07-26T01:15:11.800Z,1016.2
2016-07-26T01:15:21.795Z,1016.19
2016-07-26T01:15:31.792Z,1016.17
2016-07-26T01:15:41.785Z,1016.16
2016-07-26T01:15:51.781Z,1016.17
2016-07-26T01:16:01.777Z,1016.19
2016-07-26T01:16:11.772Z,1016.18
2016-07-26T01:16:21.767Z,1016.15
2016-07-26T01:16:31.764Z,1016.13
2016-07-26T01:16:41.759Z,1016.16
2016-07-26T01:16:51.756Z,1016.15
2016-07-26T01:17:01.752Z,1016.13
2016-07-26T01:17:11.749Z,1016.12
2016-07-26T01:17:21.743Z,1016.11
2016-07-26T01:17:31.738Z,1016.11
2016-07-26T01:17:41.734Z,1016.1
2016-07-26T01:17:51.730Z,1016.1
2016-07-26T01:18:01.726Z,1016.09
2016-07-26T01:18:11.722Z,1016.09
2016-07-26T01:18:21.717Z,1016.05
2016-07-26T01:18:31.713Z,1016.11
2016-07-26T01:18:41.709Z,1016.06
2016-07-26T01:18:51.705Z,1016.05
2016-07-26T01:19:01.700Z,1016.04
2016-07-26T01:19:11.695Z,1016.03
2016-07-26T01:19:21.693Z,1016.04
2016-07-26T01:19:31.690Z,1016.04
2016-07-26T01:19:41.687Z,1016.03
2016-07-26T01:19:51.675Z,1016.02
2016-07-26T01:20:01.675Z,1016.04
2016-07-26T01:20:11.668Z,1016.04
2016-07-26T01:20:21.665Z,1016.02
2016-07-26T01:20:31.660Z,1016.02
2016-07-26T01:20:41.655Z,1016.01
2016-07-26T01:20:51.653Z,1015.98
2016-07-26T01:21:01.647Z,1015.99
2016-07-26T01:21:11.642Z,1016.01
2016-07-26T01:21:21.639Z,1016.02
2016-07-26T01:21:31.634Z,1016.01
2016-07-26T01:21:41.628Z,1015.98
2016-07-26T01:21:51.625Z,1016.02
2016-07-26T01:22:01.621Z,1016
2016-07-26T01:22:11.617Z,1016.04
2016-07-26T01:22:21.610Z,1016.03
2016-07-26T01:22:31.610Z,1016.01
2016-07-26T01:22:41.603Z,1016.02
2016-07-26T01:22:51.603Z,1016.01
2016-07-26T01:23:01.596Z,1016.01
2016-07-26T01:23:11.591Z,1016
2016-07-26T01:23:21.585Z,1016.03
2016-07-26T01:23:31.581Z,1015.97
2016-07-26T01:23:41.575Z,1015.98
2016-07-26T01:23:51.774Z,1016
2016-07-26T01:24:01.569Z,1015.96
2016-07-26T01:24:11.564Z,1016.05
2016-07-26T01:24:21.559Z,1016
2016-07-26T01:24:31.556Z,1016
2016-07-26T01:24:41.549Z,1016.01
2016-07-26T01:24:51.547Z,1016.04
2016-07-26T01:25:01.542Z,1015.98
2016-07-26T01:25:11.537Z,1015.97
2016-07-26T01:25:21.534Z,1016.07
2016-07-26T01:25:31.534Z,1016.02
2016-07-26T01:25:41.522Z,1016.05
2016-07-26T01:25:51.520Z,1016.04
2016-07-26T01:26:01.517Z,1016.01
2016-07-26T01:26:11.513Z,1016.05
2016-07-26T01:26:21.506Z,1016.05
2016-07-26T01:26:31.503Z,1016.01
2016-07-26T01:26:41.500Z,1016.01
2016-07-26T01:26:51.502Z,1015.99
2016-07-26T01:27:01.491Z,1016.03
2016-07-26T01:27:11.486Z,1015.99
2016-07-26T01:27:21.482Z,1016.03
2016-07-26T01:27:31.480Z,1016.01
2016-07-26T01:27:41.472Z,1016.04
2016-07-26T01:27:51.468Z,1016
2016-07-26T01:28:01.465Z,1015.99
2016-07-26T01:28:11.458Z,1015.98
2016-07-26T01:28:21.455Z,1015.98
2016-07-26T01:28:31.450Z,1016.04
2016-07-26T01:28:41.446Z,1016.01
2016-07-26T01:28:51.443Z,1015.94
2016-07-26T01:29:01.438Z,1015.98
2016-07-26T01:29:11.431Z,1015.98
2016-07-26T01:29:21.430Z,1015.97
2016-07-26T01:29:31.423Z,1015.95
2016-07-26T01:29:41.419Z,1016
2016-07-26T01:29:51.421Z,1015.98
2016-07-26T01:30:01.409Z,1015.97
2016-07-26T01:30:11.406Z,1015.96
2016-07-26T01:30:21.401Z,1015.96
2016-07-26T01:30:31.398Z,1015.91
2016-07-26T01:30:41.392Z,1015.95
2016-07-26T01:30:51.388Z,1015.97
2016-07-26T01:31:01.384Z,1016
2016-07-26T01:31:11.381Z,1016
2016-07-26T01:31:21.377Z,1015.95
2016-07-26T01:31:31.372Z,1015.96
2016-07-26T01:31:41.367Z,1015.96
2016-07-26T01:31:51.369Z,1016
2016-07-26T01:32:01.359Z,1015.97
2016-07-26T01:32:11.354Z,1015.96
2016-07-26T01:32:21.351Z,1015.94
2016-07-26T01:32:31.346Z,1015.96
2016-07-26T01:32:41.342Z,1015.98
2016-07-26T01:32:51.336Z,1015.98
2016-07-26T01:33:01.333Z,1016.01
2016-07-26T01:33:11.329Z,1015.98
2016-07-26T01:33:21.326Z,1016.02
2016-07-26T01:33:31.319Z,1016
2016-07-26T01:33:41.316Z,1016.01
2016-07-26T01:33:51.310Z,1016.04
2016-07-26T01:34:01.307Z,1015.99
2016-07-26T01:34:11.302Z,1016
2016-07-26T01:34:21.299Z,1015.97
2016-07-26T01:34:31.293Z,1016.04
2016-07-26T01:34:41.291Z,1016.03
2016-07-26T01:34:51.291Z,1016.08
2016-07-26T01:35:01.281Z,1016.07
2016-07-26T01:35:11.275Z,1016.08
2016-07-26T01:35:21.272Z,1016.05
2016-07-26T01:35:31.273Z,1016.08
2016-07-26T01:35:41.261Z,1016.07
2016-07-26T01:35:51.259Z,1016.07
2016-07-26T01:36:01.258Z,1016.05
2016-07-26T01:36:11.250Z,1016.1
2016-07-26T01:36:21.250Z,1016.08
2016-07-26T01:36:31.242Z,1016.06
2016-07-26T01:36:41.237Z,1016.08
2016-07-26T01:36:51.232Z,1016.06
2016-07-26T01:37:01.228Z,1016.04
2016-07-26T01:37:11.223Z,1016.08
2016-07-26T01:37:21.219Z,1016.1
2016-07-26T01:37:31.215Z,1016.05
2016-07-26T01:37:41.210Z,1016.1
2016-07-26T01:37:51.207Z,1016.04
2016-07-26T01:38:01.202Z,1016.1
2016-07-26T01:38:11.198Z,1016.08
2016-07-26T01:38:21.193Z,1016.06
2016-07-26T01:38:31.188Z,1016.07
2016-07-26T01:38:41.184Z,1016.05
2016-07-26T01:38:51.180Z,1016.05
2016-07-26T01:39:01.176Z,1016.09
2016-07-26T01:39:11.173Z,1016.12
2016-07-26T01:39:21.167Z,1016.1
2016-07-26T01:39:31.162Z,1016.1
2016-07-26T01:39:41.158Z,1016.12
2016-07-26T01:39:51.152Z,1016.1
2016-07-26T01:40:01.149Z,1016.08
2016-07-26T01:40:11.144Z,1016.08
2016-07-26T01:40:21.141Z,1016.09
2016-07-26T01:40:31.138Z,1016.09
2016-07-26T01:40:41.133Z,1016.07
2016-07-26T01:40:51.130Z,1016.1
2016-07-26T01:41:01.123Z,1016.07
2016-07-26T01:41:11.118Z,1016.09
2016-07-26T01:41:21.117Z,1016.13
2016-07-26T01:41:31.109Z,1016.11
2016-07-26T01:41:41.105Z,1016.1
2016-07-26T01:41:51.100Z,1016.1
2016-07-26T01:42:01.098Z,1016.11
2016-07-26T01:42:11.826Z,1016.09
2016-07-26T01:42:21.087Z,1016.13
2016-07-26T01:42:31.084Z,1016.07
2016-07-26T01:42:41.080Z,1016.13
2016-07-26T01:42:51.073Z,1016.1
2016-07-26T01:43:01.071Z,1016.11
2016-07-26T01:43:11.067Z,1016.12
2016-07-26T01:43:21.063Z,1016.11
2016-07-26T01:43:31.058Z,1016.1
2016-07-26T01:43:41.052Z,1016.13
2016-07-26T01:43:51.046Z,1016.1
2016-07-26T01:44:01.045Z,1016.11
2016-07-26T01:44:11.043Z,1016.12
2016-07-26T01:44:21.035Z,1016.11
2016-07-26T01:44:31.031Z,1016.13
2016-07-26T01:44:41.027Z,1016.12
2016-07-26T01:44:51.022Z,1016.12
2016-07-26T01:45:01.016Z,1016.07
2016-07-26T01:45:11.013Z,1016.13
2016-07-26T01:45:21.009Z,1016.14
2016-07-26T01:45:31.005Z,1016.1
2016-07-26T01:45:41.002Z,1016.07
2016-07-26T01:45:50.997Z,1016.07
2016-07-26T01:46:00.992Z,1016.09
2016-07-26T01:46:10.991Z,1016.09
2016-07-26T01:46:20.983Z,1016.1
2016-07-26T01:46:30.980Z,1016.1
2016-07-26T01:46:40.977Z,1016.06
2016-07-26T01:46:50.971Z,1016.09
2016-07-26T01:47:00.967Z,1016.08
2016-07-26T01:47:10.963Z,1016.1
2016-07-26T01:47:20.956Z,1016.11
2016-07-26T01:47:30.955Z,1016.12
2016-07-26T01:47:40.952Z,1016.1
2016-07-26T01:47:50.947Z,1016.07
2016-07-26T01:48:00.941Z,1016.07
2016-07-26T01:48:10.938Z,1016.12
2016-07-26T01:48:20.929Z,1016.05
2016-07-26T01:48:30.928Z,1016.05
2016-07-26T01:48:40.922Z,1016.07
2016-07-26T01:48:50.918Z,1016.11
2016-07-26T01:49:00.916Z,1016.06
2016-07-26T01:49:10.909Z,1016.07
2016-07-26T01:49:20.905Z,1016.09
2016-07-26T01:49:30.901Z,1016.09
2016-07-26T01:49:40.896Z,1016.07
2016-07-26T01:49:50.893Z,1016.06
2016-07-26T01:50:00.887Z,1016.1
2016-07-26T01:50:10.882Z,1016.06
2016-07-26T01:50:20.875Z,1016.06
2016-07-26T01:50:30.872Z,1016.06
2016-07-26T01:50:41.599Z,1016.08
2016-07-26T01:50:50.864Z,1016.06
2016-07-26T01:51:00.860Z,1016.05
2016-07-26T01:51:10.855Z,1016.07
2016-07-26T01:51:20.852Z,1016.03
2016-07-26T01:51:30.847Z,1016.02
2016-07-26T01:51:40.843Z,1016.03
2016-07-26T01:51:50.837Z,1016.02
2016-07-26T01:52:00.838Z,1016.04
2016-07-26T01:52:10.829Z,1016.02
2016-07-26T01:52:20.825Z,1015.95
2016-07-26T01:52:30.821Z,1016.02
2016-07-26T01:52:40.816Z,1016.05
2016-07-26T01:52:50.813Z,1015.98
2016-07-26T01:53:00.808Z,1015.98
2016-07-26T01:53:10.804Z,1015.98
2016-07-26T01:53:20.801Z,1015.98
2016-07-26T01:53:30.795Z,1016.01
2016-07-26T01:53:40.793Z,1016
2016-07-26T01:53:50.787Z,1016.05
2016-07-26T01:54:00.781Z,1016.03
2016-07-26T01:54:10.780Z,1016.06
2016-07-26T01:54:20.772Z,1016.04
2016-07-26T01:54:30.769Z,1016.06
2016-07-26T01:54:40.765Z,1016.03
2016-07-26T01:54:50.759Z,1016.01
2016-07-26T01:55:00.757Z,1016.07
2016-07-26T01:55:10.752Z,1016.02
2016-07-26T01:55:20.746Z,1016.03
2016-07-26T01:55:30.743Z,1016
2016-07-26T01:55:40.738Z,1016.03
2016-07-26T01:55:50.735Z,1016.01
2016-07-26T01:56:00.729Z,1016.05
2016-07-26T01:56:10.724Z,1016.04
2016-07-26T01:56:20.721Z,1016.03
2016-07-26T01:56:30.716Z,1016.06
2016-07-26T01:56:40.720Z,1016.05
2016-07-26T01:56:50.706Z,1016.03
2016-07-26T01:57:00.703Z,1016.02
2016-07-26T01:57:10.698Z,1015.99
2016-07-26T01:57:20.694Z,1016.07
2016-07-26T01:57:30.689Z,1016.03
2016-07-26T01:57:40.684Z,1016.08
2016-07-26T01:57:50.682Z,1016.01
2016-07-26T01:58:00.675Z,1016.04
2016-07-26T01:58:10.670Z,1016.03
2016-07-26T01:58:20.666Z,1016.08
2016-07-26T01:58:30.666Z,1016.04
2016-07-26T01:58:40.659Z,1016.04
2016-07-26T01:58:50.655Z,1016.02
2016-07-26T01:59:00.650Z,1016.07
2016-07-26T01:59:10.647Z,1016.02
2016-07-26T01:59:20.645Z,1016.03
2016-07-26T01:59:30.637Z,1016.01
2016-07-26T01:59:40.632Z,1016.03
2016-07-26T01:59:50.629Z,1016.03
2016-07-26T02:00:00.623Z,1016.03
2016-07-26T02:00:10.617Z,1016.03
2016-07-26T02:00:20.615Z,1016.06
2016-07-26T02:00:30.611Z,1016.05
2016-07-26T02:00:40.606Z,1016.09
2016-07-26T02:00:50.601Z,1015.99
2016-07-26T02:01:00.597Z,1016.11
2016-07-26T02:01:10.598Z,1016.06
2016-07-26T02:01:20.594Z,1016.03
2016-07-26T02:01:30.585Z,1016.06